Juneau, WI

9:37 AM CST on November 13, 2019 (GMT -0600)
Georgetown Heights | | Change Station

Elev 902 ft 43.46 °N, 88.81 °W | Updated 18 seconds ago

Overcast
Overcast
17.6 °F
Feels Like 11 °F
N
4
Wind Variable Wind from NW
Gusts 4.0 mph

Today
High -- | Low -- °F
--% Chance of Precip.
Yesterday
High -- | Low -- °F
Precip. -- in
Pressure 30.10 in
Visibility 10.0 miles
Clouds Mostly Cloudy 6500 ft
Mostly Cloudy 7000 ft
Overcast 8000 ft
Windchill 11 °F
Dew Point 12 °F
Humidity 77%
Rainfall in
Snow Depth Not available.
6:45 AM 4:32 PM
Full, 99% visible
METAR KUNU 131515Z AUTO 18014G19KT 10SM BKN065 BKN070 OVC080 M09/M14 A3010 RMK AO2 T10921140
Pressure 30.10 in
Visibility 10.0 miles
Clouds Mostly Cloudy 6500 ft
Mostly Cloudy 7000 ft
Overcast 8000 ft
Windchill 11 °F
Dew Point 12 °F
Humidity 77%
Rainfall in
Snow Depth Not available.
6:45 AM 4:32 PM
Full, 99% visible
METAR KUNU 131515Z AUTO 18014G19KT 10SM BKN065 BKN070 OVC080 M09/M14 A3010 RMK AO2 T10921140

Get Severe Weather Alerts

Thanks for signing up!

Be on the lookout for a verification email in your inbox.

You'll start receiving the daily forecast at 6 AM.

×

10-Day Weather Forecast

Almanac

Astronomy

Nov. 13, 2019 Rise Set
Actual Time
Civil Twilight
Nautical Twilight
Astronomical Twilight
Moon
Length of Visible Light
Length of Day
Tomorrow will be .
, % of the Moon is Illuminated

Today's Extremes

State Highs State Lows

Community

WunderPhotos

Category 6

Welcome to Category 6. This is the collective home for Weather Underground's featured writeups by Dr. Jeff Masters (right), Bob Henson (left), Chris Burt, and other regular contributors.

Nearby

Air Quality

  Air Quality AQ Index Pollutant
Not available.

Snow Depth

Station Depth Elevation

Earthquake Activity

City Distance Mag. Time & Date
Minimum magnitude displayed is 2.5.

Coastal Water Temperatures

Place Temperature

Stations

Nearby Weather Stations

Station Location Temp. Windchill Dew Point Humidity Wind Precip. Elev Updated Type
                   

Watches & Warnings

There are currently no watches in effect.